createdAt,value
2022-09-11T00:00:15.858Z,16.91
2022-09-11T00:02:22.935Z,16.96
2022-09-11T00:04:27.857Z,17.00
2022-09-11T00:06:35.523Z,17.01
2022-09-11T00:08:41.377Z,17.05
2022-09-11T00:10:48.299Z,17.07
2022-09-11T00:12:53.237Z,17.07
2022-09-11T00:14:58.050Z,17.06
2022-09-11T00:17:02.805Z,17.07
2022-09-11T00:19:09.786Z,17.05
2022-09-11T00:21:14.623Z,17.02
2022-09-11T00:23:23.369Z,17.02
2022-09-11T00:25:28.140Z,17.03
2022-09-11T00:27:32.931Z,17.07
2022-09-11T00:29:37.665Z,17.10
2022-09-11T00:31:42.639Z,17.12
2022-09-11T00:33:48.129Z,17.14
2022-09-11T00:35:59.099Z,17.15
2022-09-11T00:38:03.880Z,17.14
2022-09-11T00:40:12.728Z,17.12
2022-09-11T00:42:17.570Z,17.11
2022-09-11T00:44:52.394Z,17.09
2022-09-11T00:46:59.608Z,17.05
2022-09-11T00:49:12.571Z,17.00
2022-09-11T00:51:17.381Z,17.00
2022-09-11T00:53:26.189Z,17.00
2022-09-11T00:55:37.960Z,17.02
2022-09-11T00:57:47.656Z,17.02
2022-09-11T00:59:55.577Z,16.98
2022-09-11T01:02:00.784Z,17.03
2022-09-11T01:04:07.196Z,17.08
2022-09-11T01:06:12.809Z,17.11
2022-09-11T01:08:17.710Z,17.03
2022-09-11T01:10:23.462Z,16.90
2022-09-11T01:12:41.537Z,16.86
2022-09-11T01:14:53.150Z,16.66
2022-09-11T01:17:11.296Z,16.65
2022-09-11T01:19:30.225Z,16.43
2022-09-11T01:22:04.547Z,16.29
2022-09-11T01:24:24.523Z,16.32
2022-09-11T01:26:45.466Z,16.45
2022-09-11T01:28:59.098Z,16.53
2022-09-11T01:31:11.235Z,16.56
2022-09-11T01:33:25.470Z,16.57
2022-09-11T01:35:43.599Z,16.55
2022-09-11T01:37:57.559Z,16.56
2022-09-11T01:40:08.499Z,16.44
2022-09-11T01:42:20.263Z,16.38
2022-09-11T01:44:31.865Z,16.46
2022-09-11T01:46:41.402Z,16.54
2022-09-11T01:48:51.440Z,16.64
2022-09-11T01:50:58.986Z,16.72
2022-09-11T01:53:09.782Z,16.74
2022-09-11T01:55:21.906Z,16.79
2022-09-11T01:57:30.530Z,16.83
2022-09-11T01:59:44.107Z,16.88
2022-09-11T02:01:54.021Z,16.89
2022-09-11T02:04:05.233Z,16.84
2022-09-11T02:06:20.570Z,16.84
2022-09-11T02:08:31.559Z,16.83
2022-09-11T02:10:41.285Z,16.83
2022-09-11T02:12:52.324Z,16.83
2022-09-11T02:15:00.241Z,16.89
2022-09-11T02:17:13.643Z,16.90
2022-09-11T02:19:21.335Z,16.93
2022-09-11T02:21:26.319Z,16.95
2022-09-11T02:23:31.087Z,16.96
2022-09-11T02:25:35.913Z,16.97
2022-09-11T02:27:43.467Z,16.94
2022-09-11T02:29:48.407Z,16.83
2022-09-11T02:31:56.955Z,16.78
2022-09-11T02:34:01.816Z,16.75
2022-09-11T02:36:24.809Z,16.80
2022-09-11T02:38:35.883Z,16.77
2022-09-11T02:40:51.855Z,16.83
2022-09-11T02:43:20.231Z,16.77
2022-09-11T02:45:36.290Z,16.76
2022-09-11T02:47:59.804Z,16.79
2022-09-11T02:50:11.293Z,16.78
2022-09-11T02:52:28.725Z,16.82
2022-09-11T02:54:42.270Z,16.75
2022-09-11T02:56:52.324Z,16.71
2022-09-11T02:59:02.209Z,16.75
2022-09-11T03:01:11.905Z,16.73
2022-09-11T03:03:21.287Z,16.69
2022-09-11T03:05:26.232Z,16.61
2022-09-11T03:07:31.187Z,16.52
2022-09-11T03:09:36.779Z,16.55
2022-09-11T03:11:47.707Z,16.48
2022-09-11T03:13:52.437Z,16.42
2022-09-11T03:15:57.502Z,16.44
2022-09-11T03:18:02.315Z,16.46
2022-09-11T03:20:11.323Z,16.43
2022-09-11T03:22:16.151Z,16.33
2022-09-11T03:24:20.937Z,16.27
2022-09-11T03:26:29.751Z,16.28
2022-09-11T03:28:35.513Z,16.13
2022-09-11T03:30:44.355Z,16.11
2022-09-11T03:32:49.158Z,16.07
2022-09-11T03:34:54.057Z,16.07
2022-09-11T03:37:02.295Z,16.00
2022-09-11T03:39:07.881Z,16.00
2022-09-11T03:41:14.039Z,15.97
2022-09-11T03:43:19.491Z,16.02
2022-09-11T03:45:24.380Z,16.00
2022-09-11T03:47:29.243Z,15.92
2022-09-11T03:49:34.001Z,15.92
2022-09-11T03:51:38.938Z,15.87
2022-09-11T03:53:47.170Z,15.93
2022-09-11T03:55:52.869Z,15.85
2022-09-11T03:57:58.394Z,15.83
2022-09-11T04:00:04.012Z,15.81
2022-09-11T04:02:25.374Z,15.78
2022-09-11T04:04:33.034Z,15.79
2022-09-11T04:06:38.301Z,15.80
2022-09-11T04:08:46.372Z,15.77
2022-09-11T04:10:51.639Z,15.75
2022-09-11T04:12:56.487Z,15.75
2022-09-11T04:15:02.297Z,15.78
2022-09-11T04:17:09.425Z,15.83
2022-09-11T04:19:17.471Z,15.82
2022-09-11T04:21:22.325Z,15.81
2022-09-11T04:23:30.353Z,15.75
2022-09-11T04:25:39.050Z,15.70
2022-09-11T04:27:44.818Z,15.72
2022-09-11T04:29:53.627Z,15.75
2022-09-11T04:31:59.386Z,15.76
2022-09-11T04:34:08.275Z,15.75
2022-09-11T04:36:18.108Z,15.82
2022-09-11T04:38:24.030Z,15.81
2022-09-11T04:40:28.817Z,15.84
2022-09-11T04:42:36.199Z,15.78
2022-09-11T04:44:41.004Z,15.80
2022-09-11T04:46:45.848Z,15.86
2022-09-11T04:48:52.743Z,15.87
2022-09-11T04:51:06.276Z,15.86
2022-09-11T04:53:11.032Z,15.88
2022-09-11T04:55:16.110Z,15.93
2022-09-11T04:57:21.270Z,15.96
2022-09-11T04:59:28.641Z,15.92
2022-09-11T05:01:46.392Z,15.94
2022-09-11T05:03:53.209Z,15.94
2022-09-11T05:05:58.061Z,15.92
2022-09-11T05:08:04.047Z,15.82
2022-09-11T05:10:11.217Z,15.81
2022-09-11T05:12:16.061Z,15.80
2022-09-11T05:14:21.109Z,15.88
2022-09-11T05:16:34.475Z,15.93
2022-09-11T05:18:39.999Z,15.99
2022-09-11T05:20:44.876Z,15.93
2022-09-11T05:22:50.606Z,15.96
2022-09-11T05:24:56.011Z,15.97
2022-09-11T05:27:01.338Z,15.91
2022-09-11T05:29:09.303Z,15.91
2022-09-11T05:31:22.076Z,15.93
2022-09-11T05:33:30.526Z,15.96
2022-09-11T05:35:35.930Z,15.90
2022-09-11T05:37:41.471Z,15.93
2022-09-11T05:39:47.517Z,15.99
2022-09-11T05:41:55.400Z,15.96
2022-09-11T05:44:02.848Z,16.02
2022-09-11T05:46:11.323Z,15.99
2022-09-11T05:48:16.583Z,16.02
2022-09-11T05:50:24.451Z,16.14
2022-09-11T05:52:29.894Z,16.18
2022-09-11T05:54:35.071Z,16.23
2022-09-11T05:56:41.621Z,16.27
2022-09-11T05:58:54.933Z,16.32
2022-09-11T06:01:09.497Z,16.32
2022-09-11T06:03:16.105Z,16.28
2022-09-11T06:05:23.995Z,16.29
2022-09-11T06:07:29.130Z,16.32
2022-09-11T06:09:33.954Z,16.26
2022-09-11T06:11:39.709Z,16.20
2022-09-11T06:13:47.464Z,16.22
2022-09-11T06:15:52.702Z,16.29
2022-09-11T06:17:58.208Z,16.23
2022-09-11T06:20:03.102Z,16.30
2022-09-11T06:22:10.553Z,16.34
2022-09-11T06:24:18.769Z,16.25
2022-09-11T06:26:26.211Z,16.30
2022-09-11T06:28:31.677Z,16.29
2022-09-11T06:30:37.455Z,16.39
2022-09-11T06:32:42.357Z,16.52
2022-09-11T06:34:47.318Z,16.63
2022-09-11T06:36:53.129Z,16.74
2022-09-11T06:39:02.355Z,16.71
2022-09-11T06:41:12.307Z,16.76
2022-09-11T06:43:17.478Z,16.85
2022-09-11T06:45:22.310Z,16.91
2022-09-11T06:47:27.287Z,16.84
2022-09-11T06:49:32.208Z,16.88
2022-09-11T06:52:12.312Z,16.95
2022-09-11T06:54:22.952Z,16.86
2022-09-11T06:56:32.514Z,16.88
2022-09-11T06:58:39.706Z,16.99
2022-09-11T07:00:44.964Z,17.08
2022-09-11T07:02:51.480Z,17.03
2022-09-11T07:04:56.322Z,16.98
2022-09-11T07:07:05.198Z,16.95
2022-09-11T07:09:14.397Z,16.87
2022-09-11T07:11:32.421Z,16.66
2022-09-11T07:13:38.255Z,16.65
2022-09-11T07:15:44.727Z,16.57
2022-09-11T07:17:50.008Z,16.56
2022-09-11T07:19:54.758Z,16.53
2022-09-11T07:22:00.010Z,16.55
2022-09-11T07:24:07.186Z,16.59
2022-09-11T07:26:16.527Z,16.64
2022-09-11T07:28:25.532Z,16.72
2022-09-11T07:30:45.588Z,16.85
2022-09-11T07:32:51.095Z,16.99
2022-09-11T07:34:56.669Z,17.06
2022-09-11T07:37:01.483Z,17.09
2022-09-11T07:39:07.037Z,17.08
2022-09-11T07:41:17.240Z,17.19
2022-09-11T07:43:26.649Z,17.37
2022-09-11T07:45:32.441Z,17.53
2022-09-11T07:47:38.653Z,17.80
2022-09-11T07:49:45.850Z,17.96
2022-09-11T07:51:52.493Z,17.93
2022-09-11T07:54:04.271Z,17.94
2022-09-11T07:56:12.689Z,17.98
2022-09-11T07:58:18.004Z,18.06
2022-09-11T08:00:25.674Z,17.84
2022-09-11T08:02:43.019Z,17.83
2022-09-11T08:04:47.825Z,17.84
2022-09-11T08:06:52.570Z,17.85
2022-09-11T08:09:07.824Z,17.77
2022-09-11T08:11:18.181Z,17.77
2022-09-11T08:13:22.981Z,17.72
2022-09-11T08:15:30.626Z,17.82
2022-09-11T08:17:35.442Z,17.82
2022-09-11T08:19:40.749Z,17.90
2022-09-11T08:21:47.870Z,18.04
2022-09-11T08:23:53.022Z,18.20
2022-09-11T08:25:59.277Z,18.29
2022-09-11T08:28:04.374Z,18.46
2022-09-11T08:30:12.817Z,18.62
2022-09-11T08:32:20.314Z,18.65
2022-09-11T08:34:25.115Z,18.67
2022-09-11T08:36:30.691Z,18.62
2022-09-11T08:38:36.118Z,18.28
2022-09-11T08:40:41.692Z,18.24
2022-09-11T08:42:48.258Z,18.21
2022-09-11T08:44:57.688Z,18.05
2022-09-11T08:47:16.665Z,17.96
2022-09-11T08:49:27.604Z,17.99
2022-09-11T08:51:34.355Z,17.90
2022-09-11T08:53:41.796Z,17.90
2022-09-11T08:55:51.506Z,17.94
2022-09-11T08:58:06.632Z,17.91
2022-09-11T09:00:21.714Z,17.99
2022-09-11T09:02:57.016Z,17.99
2022-09-11T09:05:23.223Z,18.00
2022-09-11T09:07:32.264Z,18.08
2022-09-11T09:09:47.937Z,18.24
2022-09-11T09:12:02.291Z,18.44
2022-09-11T09:14:29.279Z,18.34
2022-09-11T09:16:47.205Z,18.20
2022-09-11T09:19:01.052Z,18.15
2022-09-11T09:21:15.795Z,18.23
2022-09-11T09:23:22.555Z,18.25
2022-09-11T09:25:29.336Z,18.41
2022-09-11T09:27:48.035Z,18.44
2022-09-11T09:29:56.543Z,18.44
2022-09-11T09:32:07.582Z,18.50
2022-09-11T09:34:19.885Z,18.50
2022-09-11T09:36:33.374Z,18.52
2022-09-11T09:38:38.768Z,18.48
2022-09-11T09:40:47.156Z,18.62
2022-09-11T09:43:11.138Z,18.93
2022-09-11T09:45:37.615Z,19.28
2022-09-11T09:47:45.997Z,19.08
2022-09-11T09:49:51.549Z,18.99
2022-09-11T09:52:04.544Z,18.99
2022-09-11T09:54:17.768Z,18.84
2022-09-11T09:56:23.922Z,18.91
2022-09-11T09:58:34.993Z,19.03
2022-09-11T10:00:42.678Z,19.03
2022-09-11T10:02:49.332Z,18.98
2022-09-11T10:05:10.739Z,19.13
2022-09-11T10:07:24.480Z,19.38
2022-09-11T10:09:31.313Z,19.63
2022-09-11T10:11:36.106Z,19.76
2022-09-11T10:13:44.009Z,19.66
2022-09-11T10:15:52.101Z,19.54
2022-09-11T10:18:21.882Z,19.29
2022-09-11T10:20:32.973Z,19.19
2022-09-11T10:22:40.467Z,19.13
2022-09-11T10:24:45.691Z,19.06
2022-09-11T10:26:54.282Z,18.93
2022-09-11T10:29:03.828Z,19.12
2022-09-11T10:31:09.106Z,19.31
2022-09-11T10:33:26.424Z,19.67
2022-09-11T10:35:33.372Z,19.97
2022-09-11T10:37:40.917Z,20.08
2022-09-11T10:39:49.286Z,20.04
2022-09-11T10:41:59.424Z,20.11
2022-09-11T10:44:05.696Z,20.09
2022-09-11T10:46:28.352Z,20.23
2022-09-11T10:48:33.474Z,20.35
2022-09-11T10:50:38.366Z,20.58
2022-09-11T10:52:58.010Z,20.58
2022-09-11T10:55:09.193Z,20.56
2022-09-11T10:57:20.989Z,20.39
2022-09-11T10:59:34.919Z,20.23
2022-09-11T11:01:40.050Z,20.00
2022-09-11T11:03:45.477Z,19.89
2022-09-11T11:06:03.614Z,19.82
2022-09-11T11:08:48.701Z,19.80
2022-09-11T11:11:08.449Z,19.87
2022-09-11T11:13:42.131Z,20.01
2022-09-11T11:15:57.680Z,20.31
2022-09-11T11:18:15.015Z,20.45
2022-09-11T11:20:37.294Z,20.50
2022-09-11T11:23:18.525Z,20.45
2022-09-11T11:25:30.329Z,20.29
2022-09-11T11:28:16.969Z,20.11
2022-09-11T11:30:24.160Z,19.71
2022-09-11T11:32:52.743Z,19.62
2022-09-11T11:35:15.642Z,19.42
2022-09-11T11:37:24.069Z,19.37
2022-09-11T11:39:36.046Z,19.32
2022-09-11T11:41:44.974Z,19.28
2022-09-11T11:43:51.618Z,19.43
2022-09-11T11:46:02.231Z,19.68
2022-09-11T11:48:15.970Z,19.93
2022-09-11T11:50:31.857Z,19.96
2022-09-11T11:52:46.336Z,19.80
2022-09-11T11:55:00.090Z,19.89
2022-09-11T11:57:13.024Z,19.92
2022-09-11T11:59:23.302Z,19.93
2022-09-11T12:01:37.848Z,20.09
2022-09-11T12:03:47.536Z,20.16
2022-09-11T12:05:52.728Z,20.31
2022-09-11T12:07:57.286Z,20.48
2022-09-11T12:10:07.279Z,20.67
2022-09-11T12:12:12.816Z,20.76
2022-09-11T12:14:29.713Z,20.91
2022-09-11T12:16:36.750Z,20.93
2022-09-11T12:18:42.279Z,20.82
2022-09-11T12:20:48.144Z,20.84
2022-09-11T12:22:53.456Z,20.83
2022-09-11T12:25:01.158Z,20.76
2022-09-11T12:27:37.387Z,20.65
2022-09-11T12:29:57.752Z,20.56
2022-09-11T12:32:25.738Z,20.57
2022-09-11T12:35:02.769Z,20.66
2022-09-11T12:37:09.748Z,20.58
2022-09-11T12:39:25.817Z,20.57
2022-09-11T12:41:33.877Z,20.39
2022-09-11T12:43:49.957Z,20.40
2022-09-11T12:45:57.787Z,20.48
2022-09-11T12:48:11.688Z,20.58
2022-09-11T12:50:21.666Z,20.57
2022-09-11T12:52:35.812Z,20.65
2022-09-11T12:54:44.721Z,20.61
2022-09-11T12:56:52.645Z,20.60
2022-09-11T12:59:01.910Z,20.58
2022-09-11T13:01:19.054Z,20.51
2022-09-11T13:03:28.059Z,20.61
2022-09-11T13:05:37.856Z,20.67
2022-09-11T13:07:46.113Z,20.72
2022-09-11T13:09:52.371Z,20.71
2022-09-11T13:11:59.025Z,21.01
2022-09-11T13:14:41.943Z,21.32
2022-09-11T13:16:50.084Z,21.03
2022-09-11T13:18:59.417Z,20.81
2022-09-11T13:21:15.269Z,20.61
2022-09-11T13:23:21.223Z,20.39
2022-09-11T13:25:28.130Z,20.13
2022-09-11T13:27:33.505Z,19.98
2022-09-11T13:29:42.984Z,19.83
2022-09-11T13:31:50.471Z,19.81
2022-09-11T13:33:55.686Z,19.89
2022-09-11T13:36:02.683Z,19.75
2022-09-11T13:38:10.618Z,19.81
2022-09-11T13:40:22.524Z,19.86
2022-09-11T13:42:28.529Z,19.81
2022-09-11T13:44:42.479Z,19.88
2022-09-11T13:46:55.769Z,20.20
2022-09-11T13:49:16.266Z,20.30
2022-09-11T13:51:24.207Z,20.40
2022-09-11T13:53:30.092Z,20.56
2022-09-11T13:55:35.487Z,20.62
2022-09-11T13:57:54.356Z,20.75
2022-09-11T14:00:00.514Z,20.83
2022-09-11T14:02:16.124Z,20.92
2022-09-11T14:04:21.839Z,20.91
2022-09-11T14:06:26.589Z,20.87
2022-09-11T14:08:35.345Z,20.79
2022-09-11T14:10:48.573Z,20.70
2022-09-11T14:12:59.526Z,20.61
2022-09-11T14:15:19.378Z,20.64
2022-09-11T14:17:27.398Z,20.61
2022-09-11T14:19:35.361Z,20.54
2022-09-11T14:21:43.846Z,20.57
2022-09-11T14:23:53.319Z,20.53
2022-09-11T14:26:16.210Z,20.50
2022-09-11T14:28:43.348Z,20.45
2022-09-11T14:31:06.924Z,20.29
2022-09-11T14:33:27.065Z,20.20
2022-09-11T14:35:32.543Z,20.29
2022-09-11T14:37:44.079Z,20.57
2022-09-11T14:39:51.323Z,20.70
2022-09-11T14:41:56.617Z,20.72
2022-09-11T14:44:01.594Z,20.67
2022-09-11T14:46:06.677Z,20.68
2022-09-11T14:48:14.425Z,20.85
2022-09-11T14:50:21.904Z,21.01
2022-09-11T14:52:30.355Z,21.12
2022-09-11T14:54:35.147Z,21.26
2022-09-11T14:56:40.702Z,21.35
2022-09-11T14:58:46.520Z,21.51
2022-09-11T15:00:51.388Z,21.44
2022-09-11T15:02:56.157Z,21.36
2022-09-11T15:05:01.252Z,21.30
2022-09-11T15:07:08.758Z,21.11
2022-09-11T15:09:13.578Z,20.90
2022-09-11T15:11:18.360Z,20.92
2022-09-11T15:13:23.694Z,20.94
2022-09-11T15:15:33.362Z,20.99
2022-09-11T15:17:38.339Z,21.00
2022-09-11T15:19:45.811Z,20.88
2022-09-11T15:21:50.541Z,20.81
2022-09-11T15:23:58.908Z,20.79
2022-09-11T15:26:05.689Z,20.87
2022-09-11T15:28:10.716Z,20.92
2022-09-11T15:30:15.462Z,20.91
2022-09-11T15:32:20.607Z,20.96
2022-09-11T15:34:27.348Z,20.99
2022-09-11T15:36:32.079Z,20.92
2022-09-11T15:38:36.920Z,20.78
2022-09-11T15:40:44.275Z,20.71
2022-09-11T15:42:50.068Z,20.71
2022-09-11T15:44:56.381Z,20.74
2022-09-11T15:47:02.107Z,20.84
2022-09-11T15:49:06.870Z,20.77
2022-09-11T15:51:13.405Z,20.71
2022-09-11T15:53:18.526Z,20.69
2022-09-11T15:55:23.099Z,20.58
2022-09-11T15:57:31.077Z,20.57
2022-09-11T15:59:36.261Z,20.57
2022-09-11T16:01:40.921Z,20.50
2022-09-11T16:03:46.017Z,20.53
2022-09-11T16:05:50.739Z,20.50
2022-09-11T16:07:55.596Z,20.45
2022-09-11T16:10:00.512Z,20.38
2022-09-11T16:12:05.889Z,20.43
2022-09-11T16:14:19.532Z,20.48
2022-09-11T16:16:24.510Z,20.49
2022-09-11T16:18:29.435Z,20.46
2022-09-11T16:20:34.292Z,20.45
2022-09-11T16:22:39.034Z,20.47
2022-09-11T16:24:43.902Z,20.48
2022-09-11T16:26:48.953Z,20.51
2022-09-11T16:28:53.527Z,20.41
2022-09-11T16:31:01.033Z,20.38
2022-09-11T16:33:05.865Z,20.37
2022-09-11T16:35:13.455Z,20.34
2022-09-11T16:37:18.445Z,20.34
2022-09-11T16:39:23.524Z,20.31
2022-09-11T16:41:28.192Z,20.23
2022-09-11T16:43:33.395Z,20.24
2022-09-11T16:45:40.003Z,20.30
2022-09-11T16:47:47.464Z,20.31
2022-09-11T16:50:09.174Z,20.34
2022-09-11T16:52:14.055Z,20.30
2022-09-11T16:54:19.183Z,20.33
2022-09-11T16:56:25.924Z,20.39
2022-09-11T16:58:31.314Z,20.43
2022-09-11T17:00:36.256Z,20.44
2022-09-11T17:02:40.978Z,20.41
2022-09-11T17:04:48.355Z,20.39
2022-09-11T17:06:53.465Z,20.36
2022-09-11T17:08:59.220Z,20.31
2022-09-11T17:11:05.904Z,20.29
2022-09-11T17:13:10.991Z,20.33
2022-09-11T17:15:15.801Z,20.34
2022-09-11T17:17:20.534Z,20.35
2022-09-11T17:19:25.350Z,20.35
2022-09-11T17:21:37.843Z,20.33
2022-09-11T17:23:42.651Z,20.27
2022-09-11T17:25:48.301Z,20.24
2022-09-11T17:27:53.338Z,20.17
2022-09-11T17:29:57.948Z,20.07
2022-09-11T17:32:26.151Z,20.02
2022-09-11T17:34:27.623Z,19.95
2022-09-11T17:36:35.451Z,19.90
2022-09-11T17:38:41.230Z,19.88
2022-09-11T17:40:46.271Z,19.85
2022-09-11T17:42:51.182Z,19.84
2022-09-11T17:44:56.399Z,19.81
2022-09-11T17:47:02.420Z,19.73
2022-09-11T17:49:07.368Z,19.65
2022-09-11T17:51:14.254Z,19.58
2022-09-11T17:53:22.366Z,19.57
2022-09-11T17:55:27.079Z,19.56
2022-09-11T17:57:32.436Z,19.55
2022-09-11T17:59:37.204Z,19.53
2022-09-11T18:01:43.276Z,19.49
2022-09-11T18:03:53.029Z,19.47
2022-09-11T18:05:59.012Z,19.42
2022-09-11T18:08:03.787Z,19.38
2022-09-11T18:10:12.212Z,19.36
2022-09-11T18:12:17.368Z,19.30
2022-09-11T18:14:21.922Z,19.18
2022-09-11T18:16:26.918Z,19.12
2022-09-11T18:18:31.536Z,19.07
2022-09-11T18:20:38.206Z,19.03
2022-09-11T18:22:43.027Z,18.98
2022-09-11T18:24:49.729Z,18.92
2022-09-11T18:27:00.724Z,18.90
2022-09-11T18:29:09.880Z,18.83
2022-09-11T18:31:14.909Z,18.75
2022-09-11T18:33:19.683Z,18.71
2022-09-11T18:35:24.507Z,18.68
2022-09-11T18:37:29.371Z,18.63
2022-09-11T18:39:34.212Z,18.61
2022-09-11T18:41:38.985Z,18.60
2022-09-11T18:43:46.434Z,18.61
2022-09-11T18:45:51.194Z,18.52
2022-09-11T18:47:56.051Z,18.48
2022-09-11T18:50:01.117Z,18.43
2022-09-11T18:52:07.305Z,18.38
2022-09-11T18:54:15.282Z,18.38
2022-09-11T18:56:20.491Z,18.36
2022-09-11T18:58:25.013Z,18.30
2022-09-11T19:00:32.856Z,18.29
2022-09-11T19:02:37.902Z,18.25
2022-09-11T19:04:42.658Z,18.21
2022-09-11T19:06:48.291Z,18.15
2022-09-11T19:08:54.820Z,18.13
2022-09-11T19:11:00.297Z,18.09
2022-09-11T19:13:05.258Z,18.05
2022-09-11T19:15:11.300Z,17.96
2022-09-11T19:17:18.703Z,17.93
2022-09-11T19:19:23.728Z,17.86
2022-09-11T19:21:28.647Z,17.79
2022-09-11T19:23:34.238Z,17.74
2022-09-11T19:25:39.085Z,17.72
2022-09-11T19:27:43.825Z,17.68
2022-09-11T19:29:50.098Z,17.70
2022-09-11T19:31:55.385Z,17.74
2022-09-11T19:34:04.539Z,17.75
2022-09-11T19:36:11.979Z,17.73
2022-09-11T19:38:16.754Z,17.74
2022-09-11T19:40:21.678Z,17.73
2022-09-11T19:42:27.149Z,17.71
2022-09-11T19:44:34.485Z,17.68
2022-09-11T19:46:41.090Z,17.61
2022-09-11T19:48:47.057Z,17.61
2022-09-11T19:50:54.847Z,17.63
2022-09-11T19:53:00.379Z,17.57
2022-09-11T19:55:05.235Z,17.57
2022-09-11T19:57:10.067Z,17.56
2022-09-11T19:59:15.680Z,17.56
2022-09-11T20:01:22.490Z,17.53
2022-09-11T20:03:27.723Z,17.47
2022-09-11T20:05:32.534Z,17.46
2022-09-11T20:07:40.527Z,17.47
2022-09-11T20:09:45.274Z,17.43
2022-09-11T20:11:50.180Z,17.41
2022-09-11T20:13:55.376Z,17.41
2022-09-11T20:16:04.399Z,17.34
2022-09-11T20:18:10.409Z,17.29
2022-09-11T20:20:15.374Z,17.29
2022-09-11T20:22:22.065Z,17.30
2022-09-11T20:24:29.638Z,17.29
2022-09-11T20:26:34.623Z,17.29
2022-09-11T20:28:39.552Z,17.24
2022-09-11T20:30:44.367Z,17.15
2022-09-11T20:32:49.212Z,17.13
2022-09-11T20:34:54.173Z,17.10
2022-09-11T20:37:00.896Z,17.09
2022-09-11T20:39:06.236Z,17.06
2022-09-11T20:41:15.689Z,17.10
2022-09-11T20:43:20.490Z,17.11
2022-09-11T20:45:25.281Z,17.13
2022-09-11T20:47:30.034Z,17.16
2022-09-11T20:49:34.786Z,17.19
2022-09-11T20:51:39.710Z,17.20
2022-09-11T20:53:45.712Z,17.23
2022-09-11T20:55:50.781Z,17.23
2022-09-11T20:58:00.605Z,17.24
2022-09-11T21:00:06.531Z,17.23
2022-09-11T21:02:12.542Z,17.22
2022-09-11T21:04:17.489Z,17.16
2022-09-11T21:06:26.133Z,17.15
2022-09-11T21:08:31.275Z,17.11
2022-09-11T21:10:38.669Z,17.09
2022-09-11T21:12:43.470Z,17.05
2022-09-11T21:14:50.915Z,17.02
2022-09-11T21:16:55.773Z,17.00
2022-09-11T21:19:02.498Z,16.96
2022-09-11T21:21:07.992Z,16.93
2022-09-11T21:23:12.819Z,16.87
2022-09-11T21:25:17.638Z,16.81
2022-09-11T21:27:22.413Z,16.72
2022-09-11T21:29:27.269Z,16.63
2022-09-11T21:31:35.291Z,16.61
2022-09-11T21:33:41.168Z,16.62
2022-09-11T21:35:46.063Z,16.66
2022-09-11T21:37:50.942Z,16.65
2022-09-11T21:39:55.795Z,16.58
2022-09-11T21:42:00.608Z,16.51
2022-09-11T21:44:05.835Z,16.47
2022-09-11T21:46:11.226Z,16.35
2022-09-11T21:48:18.531Z,16.31
2022-09-11T21:50:23.271Z,16.34
2022-09-11T21:52:28.189Z,16.35
2022-09-11T21:54:32.912Z,16.25
2022-09-11T21:56:37.662Z,16.26
2022-09-11T21:58:42.576Z,16.28
2022-09-11T22:00:48.534Z,16.25
2022-09-11T22:02:53.351Z,16.21
2022-09-11T22:05:01.073Z,16.20
2022-09-11T22:07:06.660Z,16.22
2022-09-11T22:09:11.483Z,16.23
2022-09-11T22:11:17.313Z,16.20
2022-09-11T22:13:22.739Z,16.18
2022-09-11T22:15:27.500Z,16.19
2022-09-11T22:17:32.324Z,16.18
2022-09-11T22:19:37.115Z,16.16
2022-09-11T22:21:44.483Z,16.20
2022-09-11T22:23:49.298Z,16.20
2022-09-11T22:26:01.253Z,16.20
2022-09-11T22:28:06.310Z,16.20
2022-09-11T22:30:11.986Z,16.16
2022-09-11T22:32:16.742Z,16.14
2022-09-11T22:34:21.574Z,16.14
2022-09-11T22:36:28.847Z,16.14
2022-09-11T22:38:36.645Z,16.11
2022-09-11T22:40:41.558Z,16.06
2022-09-11T22:42:47.022Z,16.04
2022-09-11T22:44:51.887Z,16.04
2022-09-11T22:46:56.743Z,16.03
2022-09-11T22:49:03.444Z,16.01
2022-09-11T22:51:08.583Z,16.03
2022-09-11T22:53:13.126Z,15.97
2022-09-11T22:55:20.733Z,15.96
2022-09-11T22:57:28.976Z,15.92
2022-09-11T22:59:34.078Z,15.90
2022-09-11T23:01:40.085Z,15.90
2022-09-11T23:03:45.108Z,15.91
2022-09-11T23:06:02.313Z,15.90
2022-09-11T23:08:07.211Z,15.85
2022-09-11T23:10:13.627Z,15.84
2022-09-11T23:12:21.018Z,15.85
2022-09-11T23:14:25.905Z,15.85
2022-09-11T23:16:32.574Z,15.87
2022-09-11T23:18:37.328Z,15.82
2022-09-11T23:20:42.424Z,15.81
2022-09-11T23:22:47.236Z,15.78
2022-09-11T23:24:52.019Z,15.77
2022-09-11T23:26:56.800Z,15.76
2022-09-11T23:29:04.284Z,15.77
2022-09-11T23:31:15.197Z,15.77
2022-09-11T23:33:20.034Z,15.76
2022-09-11T23:35:25.095Z,15.76
2022-09-11T23:37:30.014Z,15.68
2022-09-11T23:39:35.088Z,15.63
2022-09-11T23:41:39.925Z,15.59
2022-09-11T23:43:45.207Z,15.53
2022-09-11T23:45:52.857Z,15.53
2022-09-11T23:47:57.618Z,15.52
2022-09-11T23:50:02.969Z,15.51
2022-09-11T23:52:08.226Z,15.50
2022-09-11T23:54:13.030Z,15.50
2022-09-11T23:56:18.074Z,15.51
2022-09-11T23:58:22.988Z,15.50
